Time;durP1;ratioP1;P1;durP2;ratioP2;P2;SDS_P1;SDS_P2;PMS_P1;PMS_P2;Temp;Humidity;BMP_temperature;BMP_pressure;BME280_temperature;BME280_humidity;BME280_pressure;Samples;Min_cycle;Max_cycle;Signal;HPM_P1;HPM_P2
2023/01/11 00:00:00;;;;;;;0.9;0.9;;;;;;;9.0;100.0;100510;;;;
2023/01/11 00:01:00;;;;;;;0.9;0.9;;;;;;;9.1;100.0;100500;;;;
2023/01/11 00:02:00;;;;;;;0.9;0.9;;;;;;;9.1;100.0;100500;;;;
2023/01/11 00:03:04;;;;;;;0.9;0.9;;;;;;;9.1;100.0;100500;;;;
2023/01/11 00:04:00;;;;;;;0.9;0.9;;;;;;;9.1;100.0;100500;;;;
2023/01/11 00:05:00;;;;;;;0.9;0.9;;;;;;;9.1;100.0;100510;;;;
2023/01/11 00:06:00;;;;;;;0.9;0.9;;;;;;;9.1;100.0;100510;;;;
2023/01/11 00:07:00;;;;;;;0.9;0.9;;;;;;;9.1;100.0;100500;;;;
2023/01/11 00:08:00;;;;;;;0.9;0.9;;;;;;;9.1;100.0;100500;;;;
2023/01/11 00:09:00;;;;;;;0.9;0.9;;;;;;;9.2;100.0;100500;;;;
2023/01/11 00:10:03;;;;;;;0.9;0.9;;;;;;;9.2;100.0;100500;;;;
2023/01/11 00:11:01;;;;;;;0.9;0.9;;;;;;;9.0;100.0;100510;;;;
2023/01/11 00:12:00;;;;;;;0.9;0.9;;;;;;;9.0;100.0;100510;;;;
2023/01/11 00:13:00;;;;;;;0.9;0.9;;;;;;;9.1;100.0;100500;;;;
2023/01/11 00:14:00;;;;;;;0.9;0.9;;;;;;;9.1;100.0;100500;;;;
2023/01/11 00:15:00;;;;;;;0.9;0.9;;;;;;;9.1;100.0;100510;;;;
2023/01/11 00:16:08;;;;;;;0.9;0.9;;;;;;;9.1;100.0;100510;;;;
2023/01/11 00:17:00;;;;;;;0.9;0.9;;;;;;;9.1;100.0;100500;;;;
2023/01/11 00:18:01;;;;;;;0.9;0.9;;;;;;;9.1;100.0;100500;;;;
2023/01/11 00:19:00;;;;;;;0.9;0.9;;;;;;;9.2;100.0;100490;;;;
2023/01/11 00:20:00;;;;;;;0.9;0.9;;;;;;;9.2;100.0;100490;;;;
2023/01/11 00:21:04;;;;;;;0.9;0.9;;;;;;;9.2;100.0;100490;;;;
2023/01/11 00:22:00;;;;;;;0.9;0.9;;;;;;;9.2;100.0;100490;;;;
2023/01/11 00:23:00;;;;;;;0.9;0.9;;;;;;;9.2;100.0;100490;;;;
2023/01/11 00:24:00;;;;;;;0.9;0.9;;;;;;;9.2;100.0;100490;;;;
2023/01/11 00:25:00;;;;;;;0.9;0.9;;;;;;;9.1;100.0;100490;;;;
2023/01/11 00:26:03;;;;;;;0.9;0.9;;;;;;;9.1;100.0;100490;;;;
2023/01/11 00:27:00;;;;;;;0.9;0.9;;;;;;;9.2;100.0;100480;;;;
2023/01/11 00:28:00;;;;;;;0.9;0.9;;;;;;;9.2;100.0;100480;;;;
2023/01/11 00:29:00;;;;;;;0.8;0.8;;;;;;;9.3;100.0;100480;;;;
2023/01/11 00:30:00;;;;;;;0.8;0.8;;;;;;;9.3;100.0;100480;;;;
2023/01/11 00:31:01;;;;;;;0.8;0.8;;;;;;;9.3;100.0;100480;;;;
2023/01/11 00:32:00;;;;;;;0.8;0.8;;;;;;;9.3;100.0;100480;;;;
2023/01/11 00:33:00;;;;;;;0.8;0.8;;;;;;;9.3;100.0;100470;;;;
2023/01/11 00:34:00;;;;;;;0.8;0.8;;;;;;;9.3;100.0;100470;;;;
2023/01/11 00:35:00;;;;;;;0.8;0.8;;;;;;;9.3;100.0;100470;;;;
2023/01/11 00:36:00;;;;;;;0.8;0.8;;;;;;;9.3;100.0;100470;;;;
2023/01/11 00:37:00;;;;;;;0.8;0.8;;;;;;;9.3;100.0;100470;;;;
2023/01/11 00:38:00;;;;;;;0.8;0.8;;;;;;;9.3;100.0;100470;;;;
2023/01/11 00:39:00;;;;;;;0.8;0.8;;;;;;;9.3;100.0;100470;;;;
2023/01/11 00:40:00;;;;;;;0.8;0.8;;;;;;;9.3;100.0;100470;;;;
2023/01/11 00:47:55;;;;;;;0.8;0.8;;;;;;;9.4;100.0;100470;;;;
2023/01/11 00:48:03;;;;;;;0.8;0.8;;;;;;;9.4;100.0;100470;;;;
2023/01/11 00:49:00;;;;;;;1.0;1.0;;;;;;;9.4;100.0;100470;;;;
2023/01/11 00:50:01;;;;;;;1.0;1.0;;;;;;;9.4;100.0;100470;;;;
2023/01/11 00:51:00;;;;;;;1.0;1.0;;;;;;;9.5;100.0;100460;;;;
2023/01/11 00:52:00;;;;;;;1.0;1.0;;;;;;;9.5;100.0;100460;;;;
2023/01/11 00:53:00;;;;;;;1.0;1.0;;;;;;;9.5;100.0;100460;;;;
2023/01/11 00:54:00;;;;;;;1.0;1.0;;;;;;;9.5;100.0;100460;;;;
2023/01/11 00:55:00;;;;;;;1.0;1.0;;;;;;;9.5;100.0;100460;;;;
2023/01/11 00:56:00;;;;;;;1.0;1.0;;;;;;;9.5;100.0;100460;;;;
2023/01/11 00:57:00;;;;;;;1.0;1.0;;;;;;;9.5;100.0;100460;;;;
2023/01/11 00:58:00;;;;;;;1.0;1.0;;;;;;;9.5;100.0;100460;;;;
2023/01/11 00:59:00;;;;;;;1.0;1.0;;;;;;;9.5;100.0;100460;;;;
2023/01/11 01:00:00;;;;;;;1.0;1.0;;;;;;;9.5;100.0;100460;;;;
2023/01/11 01:01:04;;;;;;;1.0;1.0;;;;;;;9.5;100.0;100470;;;;
2023/01/11 01:02:00;;;;;;;1.0;1.0;;;;;;;9.5;100.0;100470;;;;
2023/01/11 01:03:00;;;;;;;1.0;1.0;;;;;;;9.4;100.0;100450;;;;
2023/01/11 01:04:00;;;;;;;1.0;1.0;;;;;;;9.4;100.0;100450;;;;
2023/01/11 01:05:00;;;;;;;1.0;1.0;;;;;;;9.5;100.0;100450;;;;
2023/01/11 01:06:00;;;;;;;1.0;1.0;;;;;;;9.5;100.0;100450;;;;
2023/01/11 01:07:00;;;;;;;1.0;1.0;;;;;;;9.5;100.0;100450;;;;
2023/01/11 01:08:00;;;;;;;1.0;1.0;;;;;;;9.5;100.0;100450;;;;
2023/01/11 01:09:00;;;;;;;0.9;0.9;;;;;;;9.5;100.0;100450;;;;
2023/01/11 01:10:00;;;;;;;0.9;0.9;;;;;;;9.5;100.0;100450;;;;
2023/01/11 01:11:00;;;;;;;0.9;0.9;;;;;;;9.6;100.0;100450;;;;
2023/01/11 01:12:01;;;;;;;0.9;0.9;;;;;;;9.6;100.0;100450;;;;
2023/01/11 01:15:00;;;;;;;0.9;0.9;;;;;;;9.6;100.0;100450;;;;
2023/01/11 01:16:00;;;;;;;0.9;0.9;;;;;;;9.6;100.0;100450;;;;
2023/01/11 01:17:06;;;;;;;0.9;0.9;;;;;;;9.5;100.0;100450;;;;
2023/01/11 01:18:00;;;;;;;0.9;0.9;;;;;;;9.5;100.0;100450;;;;
2023/01/11 01:19:00;;;;;;;0.9;0.9;;;;;;;9.5;100.0;100460;;;;
2023/01/11 01:20:00;;;;;;;0.9;0.9;;;;;;;9.5;100.0;100460;;;;
2023/01/11 01:21:00;;;;;;;0.9;0.9;;;;;;;9.5;100.0;100450;;;;
2023/01/11 01:22:00;;;;;;;0.9;0.9;;;;;;;9.5;100.0;100450;;;;
2023/01/11 01:23:00;;;;;;;0.9;0.9;;;;;;;9.5;100.0;100450;;;;
2023/01/11 01:24:00;;;;;;;0.9;0.9;;;;;;;9.5;100.0;100450;;;;
2023/01/11 01:25:00;;;;;;;0.9;0.9;;;;;;;9.5;100.0;100450;;;;
2023/01/11 01:26:02;;;;;;;0.9;0.9;;;;;;;9.5;100.0;100450;;;;
2023/01/11 01:27:00;;;;;;;0.9;0.9;;;;;;;9.5;100.0;100450;;;;
2023/01/11 01:28:00;;;;;;;0.9;0.9;;;;;;;9.5;100.0;100450;;;;
2023/01/11 01:29:00;;;;;;;2.3;2.1;;;;;;;9.5;100.0;100460;;;;
2023/01/11 01:30:00;;;;;;;2.3;2.1;;;;;;;9.5;100.0;100460;;;;
2023/01/11 01:31:00;;;;;;;2.3;2.1;;;;;;;9.5;100.0;100460;;;;
2023/01/11 01:32:00;;;;;;;2.3;2.1;;;;;;;9.5;100.0;100460;;;;
2023/01/11 01:33:00;;;;;;;2.3;2.1;;;;;;;9.5;100.0;100460;;;;
2023/01/11 01:34:00;;;;;;;2.3;2.1;;;;;;;9.5;100.0;100460;;;;
2023/01/11 01:35:00;;;;;;;2.3;2.1;;;;;;;9.6;100.0;100460;;;;
2023/01/11 01:36:00;;;;;;;2.3;2.1;;;;;;;9.6;100.0;100460;;;;
2023/01/11 01:37:00;;;;;;;2.3;2.1;;;;;;;9.6;100.0;100460;;;;
2023/01/11 01:38:00;;;;;;;2.3;2.1;;;;;;;9.6;100.0;100460;;;;
2023/01/11 01:39:00;;;;;;;2.3;2.1;;;;;;;9.5;100.0;100460;;;;
2023/01/11 01:40:00;;;;;;;2.3;2.1;;;;;;;9.5;100.0;100460;;;;
2023/01/11 01:41:00;;;;;;;2.3;2.1;;;;;;;9.6;100.0;100460;;;;
2023/01/11 01:42:00;;;;;;;2.3;2.1;;;;;;;9.6;100.0;100460;;;;
2023/01/11 01:43:00;;;;;;;2.3;2.1;;;;;;;9.6;100.0;100460;;;;
2023/01/11 01:44:02;;;;;;;2.3;2.1;;;;;;;9.6;100.0;100460;;;;
2023/01/11 01:45:02;;;;;;;2.3;2.1;;;;;;;9.6;100.0;100460;;;;
2023/01/11 01:46:00;;;;;;;2.3;2.1;;;;;;;9.6;100.0;100460;;;;
2023/01/11 01:47:02;;;;;;;2.3;2.1;;;;;;;9.6;100.0;100460;;;;
2023/01/11 01:48:01;;;;;;;2.3;2.1;;;;;;;9.6;100.0;100460;;;;
2023/01/11 01:49:07;;;;;;;0.8;0.8;;;;;;;9.6;100.0;100460;;;;
2023/01/11 01:50:03;;;;;;;0.8;0.8;;;;;;;9.6;100.0;100460;;;;
2023/01/11 01:51:00;;;;;;;0.8;0.8;;;;;;;9.7;100.0;100470;;;;
2023/01/11 01:52:00;;;;;;;0.8;0.8;;;;;;;9.7;100.0;100470;;;;
2023/01/11 01:53:04;;;;;;;0.8;0.8;;;;;;;9.7;100.0;100460;;;;
2023/01/11 01:54:05;;;;;;;0.8;0.8;;;;;;;9.7;100.0;100460;;;;
2023/01/11 01:55:03;;;;;;;0.8;0.8;;;;;;;9.6;100.0;100460;;;;
2023/01/11 01:56:02;;;;;;;0.8;0.8;;;;;;;9.6;100.0;100460;;;;
2023/01/11 01:57:04;;;;;;;0.8;0.8;;;;;;;9.6;100.0;100460;;;;
2023/01/11 01:58:03;;;;;;;0.8;0.8;;;;;;;9.6;100.0;100460;;;;
2023/01/11 01:59:04;;;;;;;0.8;0.8;;;;;;;9.6;100.0;100450;;;;
2023/01/11 02:00:01;;;;;;;0.8;0.8;;;;;;;9.6;100.0;100450;;;;
2023/01/11 02:01:45;;;;;;;0.8;0.8;;;;;;;9.7;100.0;100450;;;;
2023/01/11 02:02:00;;;;;;;0.8;0.8;;;;;;;9.7;100.0;100450;;;;
2023/01/11 02:03:00;;;;;;;0.8;0.8;;;;;;;9.7;100.0;100450;;;;
2023/01/11 02:04:03;;;;;;;0.8;0.8;;;;;;;9.7;100.0;100450;;;;
2023/01/11 02:05:00;;;;;;;0.8;0.8;;;;;;;9.8;100.0;100450;;;;
2023/01/11 02:06:00;;;;;;;0.8;0.8;;;;;;;9.8;100.0;100450;;;;
2023/01/11 02:07:07;;;;;;;0.8;0.8;;;;;;;9.7;100.0;100450;;;;
2023/01/11 02:08:04;;;;;;;0.8;0.8;;;;;;;9.7;100.0;100450;;;;
2023/01/11 02:09:04;;;;;;;0.8;0.8;;;;;;;9.8;100.0;100450;;;;
2023/01/11 02:10:06;;;;;;;0.8;0.8;;;;;;;9.8;100.0;100450;;;;
2023/01/11 02:11:02;;;;;;;0.8;0.8;;;;;;;9.8;100.0;100450;;;;
2023/01/11 02:12:01;;;;;;;0.8;0.8;;;;;;;9.8;100.0;100450;;;;
2023/01/11 02:13:04;;;;;;;0.8;0.8;;;;;;;9.8;100.0;100450;;;;
2023/01/11 02:14:02;;;;;;;0.8;0.8;;;;;;;9.8;100.0;100450;;;;
2023/01/11 02:15:01;;;;;;;0.8;0.8;;;;;;;9.7;100.0;100440;;;;
2023/01/11 02:16:07;;;;;;;0.8;0.8;;;;;;;9.7;100.0;100440;;;;
2023/01/11 02:17:00;;;;;;;0.8;0.8;;;;;;;9.8;100.0;100440;;;;
2023/01/11 02:18:00;;;;;;;0.8;0.8;;;;;;;9.8;100.0;100440;;;;
2023/01/11 02:19:00;;;;;;;0.8;0.8;;;;;;;9.9;100.0;100440;;;;
2023/01/11 02:20:10;;;;;;;0.8;0.8;;;;;;;9.9;100.0;100440;;;;
2023/01/11 02:21:03;;;;;;;0.8;0.8;;;;;;;9.8;100.0;100450;;;;
2023/01/11 02:22:11;;;;;;;0.8;0.8;;;;;;;9.8;100.0;100450;;;;
2023/01/11 02:23:07;;;;;;;0.8;0.8;;;;;;;9.8;100.0;100450;;;;
2023/01/11 02:24:10;;;;;;;0.8;0.8;;;;;;;9.8;100.0;100450;;;;
2023/01/11 02:25:11;;;;;;;0.8;0.8;;;;;;;9.9;100.0;100450;;;;
2023/01/11 02:26:10;;;;;;;0.8;0.8;;;;;;;9.9;100.0;100450;;;;
2023/01/11 02:27:10;;;;;;;0.8;0.8;;;;;;;9.9;100.0;100450;;;;
2023/01/11 02:28:04;;;;;;;0.8;0.8;;;;;;;9.9;100.0;100450;;;;
2023/01/11 02:29:06;;;;;;;0.9;0.9;;;;;;;10.0;100.0;100450;;;;
2023/01/11 02:30:05;;;;;;;0.9;0.9;;;;;;;10.0;100.0;100450;;;;
2023/01/11 02:31:01;;;;;;;0.9;0.9;;;;;;;10.0;100.0;100450;;;;
2023/01/11 02:32:08;;;;;;;0.9;0.9;;;;;;;10.0;100.0;100450;;;;
2023/01/11 02:33:07;;;;;;;0.9;0.9;;;;;;;9.9;100.0;100450;;;;
2023/01/11 02:34:10;;;;;;;0.9;0.9;;;;;;;9.9;100.0;100450;;;;
2023/01/11 02:35:09;;;;;;;0.9;0.9;;;;;;;9.9;100.0;100440;;;;
2023/01/11 02:36:10;;;;;;;0.9;0.9;;;;;;;9.9;100.0;100440;;;;
2023/01/11 02:37:01;;;;;;;0.9;0.9;;;;;;;9.9;100.0;100450;;;;
2023/01/11 02:38:05;;;;;;;0.9;0.9;;;;;;;9.9;100.0;100450;;;;
2023/01/11 02:39:07;;;;;;;0.9;0.9;;;;;;;9.9;100.0;100450;;;;
2023/01/11 02:40:06;;;;;;;0.9;0.9;;;;;;;9.9;100.0;100450;;;;
2023/01/11 02:41:10;;;;;;;0.9;0.9;;;;;;;9.9;100.0;100440;;;;
2023/01/11 02:45:01;;;;;;;0.9;0.9;;;;;;;10.0;100.0;100440;;;;
2023/01/11 02:46:10;;;;;;;0.9;0.9;;;;;;;10.0;100.0;100440;;;;
2023/01/11 02:47:05;;;;;;;0.9;0.9;;;;;;;10.0;100.0;100440;;;;
2023/01/11 02:48:10;;;;;;;0.9;0.9;;;;;;;10.0;100.0;100440;;;;
2023/01/11 02:49:03;;;;;;;0.9;0.9;;;;;;;10.1;100.0;100440;;;;
2023/01/11 02:50:10;;;;;;;0.9;0.9;;;;;;;10.1;100.0;100440;;;;
2023/01/11 02:51:04;;;;;;;0.9;0.9;;;;;;;10.1;100.0;100440;;;;
2023/01/11 02:52:01;;;;;;;0.9;0.9;;;;;;;10.1;100.0;100440;;;;
2023/01/11 02:53:03;;;;;;;0.9;0.9;;;;;;;10.1;100.0;100440;;;;
2023/01/11 02:54:03;;;;;;;0.9;0.9;;;;;;;10.1;100.0;100440;;;;
2023/01/11 02:55:02;;;;;;;0.9;0.9;;;;;;;10.1;100.0;100440;;;;
2023/01/11 02:56:04;;;;;;;0.9;0.9;;;;;;;10.1;100.0;100440;;;;
2023/01/11 02:57:02;;;;;;;0.9;0.9;;;;;;;10.1;100.0;100440;;;;
2023/01/11 02:58:01;;;;;;;0.9;0.9;;;;;;;10.1;100.0;100440;;;;
2023/01/11 02:59:01;;;;;;;0.9;0.9;;;;;;;10.1;100.0;100430;;;;
2023/01/11 03:00:01;;;;;;;0.9;0.9;;;;;;;10.1;100.0;100430;;;;
2023/01/11 03:01:00;;;;;;;0.9;0.9;;;;;;;10.1;100.0;100440;;;;
2023/01/11 03:02:01;;;;;;;0.9;0.9;;;;;;;10.1;100.0;100440;;;;
2023/01/11 03:03:04;;;;;;;0.9;0.9;;;;;;;10.2;100.0;100430;;;;
2023/01/11 03:04:00;;;;;;;0.9;0.9;;;;;;;10.2;100.0;100430;;;;
2023/01/11 03:05:00;;;;;;;0.9;0.9;;;;;;;10.2;100.0;100440;;;;
2023/01/11 03:06:04;;;;;;;0.9;0.9;;;;;;;10.2;100.0;100440;;;;
2023/01/11 03:07:07;;;;;;;0.9;0.9;;;;;;;10.3;100.0;100430;;;;
2023/01/11 03:08:07;;;;;;;0.7;0.7;;;;;;;10.3;100.0;100430;;;;
2023/01/11 03:09:08;;;;;;;0.7;0.7;;;;;;;10.2;100.0;100440;;;;
2023/01/11 03:10:10;;;;;;;0.7;0.7;;;;;;;10.2;100.0;100440;;;;
2023/01/11 03:11:03;;;;;;;0.7;0.7;;;;;;;10.1;100.0;100430;;;;
2023/01/11 03:13:10;;;;;;;0.7;0.7;;;;;;;10.2;100.0;100430;;;;
2023/01/11 03:14:00;;;;;;;0.7;0.7;;;;;;;10.2;100.0;100430;;;;
2023/01/11 03:15:10;;;;;;;0.7;0.7;;;;;;;10.2;100.0;100430;;;;
2023/01/11 03:16:10;;;;;;;0.7;0.7;;;;;;;10.2;100.0;100430;;;;
2023/01/11 03:17:08;;;;;;;0.7;0.7;;;;;;;10.2;100.0;100430;;;;
2023/01/11 03:18:10;;;;;;;0.7;0.7;;;;;;;10.2;100.0;100430;;;;
2023/01/11 03:19:00;;;;;;;0.7;0.7;;;;;;;10.2;100.0;100430;;;;
2023/01/11 03:20:05;;;;;;;0.7;0.7;;;;;;;10.2;100.0;100430;;;;
2023/01/11 03:21:10;;;;;;;0.7;0.7;;;;;;;10.3;100.0;100440;;;;
2023/01/11 03:22:10;;;;;;;0.7;0.7;;;;;;;10.3;100.0;100440;;;;
2023/01/11 03:23:00;;;;;;;0.7;0.7;;;;;;;10.3;100.0;100430;;;;
2023/01/11 03:24:10;;;;;;;0.7;0.7;;;;;;;10.3;100.0;100430;;;;
2023/01/11 03:25:03;;;;;;;0.7;0.7;;;;;;;10.3;100.0;100430;;;;
2023/01/11 03:26:10;;;;;;;0.7;0.7;;;;;;;10.3;100.0;100430;;;;
2023/01/11 03:27:00;;;;;;;0.7;0.7;;;;;;;10.4;100.0;100430;;;;
2023/01/11 03:28:05;;;;;;;0.8;0.8;;;;;;;10.4;100.0;100430;;;;
2023/01/11 03:29:10;;;;;;;0.8;0.8;;;;;;;10.4;100.0;100420;;;;
2023/01/11 03:30:00;;;;;;;0.8;0.8;;;;;;;10.4;100.0;100420;;;;
2023/01/11 03:31:07;;;;;;;0.8;0.8;;;;;;;10.3;100.0;100430;;;;
2023/01/11 03:32:10;;;;;;;0.8;0.8;;;;;;;10.3;100.0;100430;;;;
2023/01/11 03:33:03;;;;;;;0.8;0.8;;;;;;;10.3;100.0;100430;;;;
2023/01/11 03:34:10;;;;;;;0.8;0.8;;;;;;;10.3;100.0;100430;;;;
2023/01/11 03:35:03;;;;;;;0.8;0.8;;;;;;;10.3;100.0;100430;;;;
2023/01/11 03:36:07;;;;;;;0.8;0.8;;;;;;;10.3;100.0;100430;;;;
2023/01/11 03:37:05;;;;;;;0.8;0.8;;;;;;;10.4;100.0;100430;;;;
2023/01/11 03:38:03;;;;;;;0.8;0.8;;;;;;;10.4;100.0;100430;;;;
2023/01/11 03:39:10;;;;;;;0.8;0.8;;;;;;;10.4;100.0;100430;;;;
2023/01/11 03:40:06;;;;;;;0.8;0.8;;;;;;;10.4;100.0;100430;;;;
2023/01/11 03:41:04;;;;;;;0.8;0.8;;;;;;;10.4;100.0;100420;;;;
2023/01/11 03:42:03;;;;;;;0.8;0.8;;;;;;;10.4;100.0;100420;;;;
2023/01/11 03:43:10;;;;;;;0.8;0.8;;;;;;;10.5;100.0;100430;;;;
2023/01/11 03:44:02;;;;;;;0.8;0.8;;;;;;;10.5;100.0;100430;;;;
2023/01/11 03:45:01;;;;;;;0.8;0.8;;;;;;;10.5;100.0;100440;;;;
2023/01/11 03:46:03;;;;;;;0.8;0.8;;;;;;;10.5;100.0;100440;;;;
2023/01/11 03:47:04;;;;;;;0.8;0.8;;;;;;;10.5;100.0;100430;;;;
2023/01/11 03:48:02;;;;;;;0.8;0.8;;;;;;;10.5;100.0;100430;;;;
2023/01/11 03:49:03;;;;;;;0.8;0.8;;;;;;;10.5;100.0;100430;;;;
2023/01/11 03:50:04;;;;;;;0.8;0.8;;;;;;;10.5;100.0;100430;;;;
2023/01/11 03:51:02;;;;;;;0.8;0.8;;;;;;;10.5;100.0;100440;;;;
2023/01/11 03:52:02;;;;;;;0.8;0.8;;;;;;;10.5;100.0;100440;;;;
2023/01/11 03:53:02;;;;;;;0.8;0.8;;;;;;;10.5;100.0;100440;;;;
2023/01/11 03:54:02;;;;;;;0.8;0.8;;;;;;;10.5;100.0;100440;;;;
2023/01/11 03:55:02;;;;;;;0.8;0.8;;;;;;;10.5;100.0;100440;;;;
2023/01/11 03:56:02;;;;;;;0.8;0.8;;;;;;;10.5;100.0;100440;;;;
2023/01/11 03:57:01;;;;;;;0.8;0.8;;;;;;;10.5;100.0;100440;;;;
2023/01/11 03:58:00;;;;;;;0.8;0.8;;;;;;;10.5;100.0;100440;;;;
2023/01/11 03:59:00;;;;;;;0.8;0.8;;;;;;;10.6;100.0;100440;;;;
2023/01/11 04:00:00;;;;;;;0.8;0.8;;;;;;;10.6;100.0;100440;;;;
2023/01/11 04:01:01;;;;;;;0.8;0.8;;;;;;;10.6;100.0;100440;;;;
2023/01/11 04:02:00;;;;;;;0.8;0.8;;;;;;;10.6;100.0;100440;;;;
2023/01/11 04:03:00;;;;;;;0.8;0.8;;;;;;;10.5;100.0;100440;;;;
2023/01/11 04:04:00;;;;;;;0.8;0.8;;;;;;;10.5;100.0;100440;;;;
2023/01/11 04:05:01;;;;;;;0.8;0.8;;;;;;;10.5;100.0;100440;;;;
2023/01/11 04:06:01;;;;;;;0.8;0.8;;;;;;;10.5;100.0;100440;;;;
2023/01/11 04:07:00;;;;;;;0.8;0.8;;;;;;;10.6;100.0;100440;;;;
2023/01/11 04:08:00;;;;;;;0.7;0.7;;;;;;;10.6;100.0;100440;;;;
2023/01/11 04:09:00;;;;;;;0.7;0.7;;;;;;;10.6;100.0;100440;;;;
2023/01/11 04:10:00;;;;;;;0.7;0.7;;;;;;;10.6;100.0;100440;;;;
2023/01/11 04:11:02;;;;;;;0.7;0.7;;;;;;;10.6;100.0;100440;;;;
2023/01/11 04:12:00;;;;;;;0.7;0.7;;;;;;;10.6;100.0;100440;;;;
2023/01/11 04:13:00;;;;;;;0.7;0.7;;;;;;;10.6;100.0;100440;;;;
2023/01/11 04:14:00;;;;;;;0.7;0.7;;;;;;;10.6;100.0;100440;;;;
2023/01/11 04:15:02;;;;;;;0.7;0.7;;;;;;;10.5;100.0;100440;;;;
2023/01/11 04:16:00;;;;;;;0.7;0.7;;;;;;;10.5;100.0;100440;;;;
2023/01/11 04:17:00;;;;;;;0.7;0.7;;;;;;;10.6;100.0;100440;;;;
2023/01/11 04:18:04;;;;;;;0.7;0.7;;;;;;;10.6;100.0;100440;;;;
2023/01/11 04:19:01;;;;;;;0.7;0.7;;;;;;;10.6;100.0;100440;;;;
2023/01/11 04:20:00;;;;;;;0.7;0.7;;;;;;;10.6;100.0;100440;;;;
2023/01/11 04:21:00;;;;;;;0.7;0.7;;;;;;;10.6;100.0;100450;;;;
2023/01/11 04:22:00;;;;;;;0.7;0.7;;;;;;;10.6;100.0;100450;;;;
2023/01/11 04:23:00;;;;;;;0.7;0.7;;;;;;;10.7;100.0;100450;;;;
2023/01/11 04:24:00;;;;;;;0.7;0.7;;;;;;;10.7;100.0;100450;;;;
2023/01/11 04:25:00;;;;;;;0.7;0.7;;;;;;;10.6;100.0;100450;;;;
2023/01/11 04:26:00;;;;;;;0.7;0.7;;;;;;;10.6;100.0;100450;;;;
2023/01/11 04:27:00;;;;;;;0.7;0.7;;;;;;;10.7;100.0;100460;;;;
2023/01/11 04:28:00;;;;;;;0.8;0.8;;;;;;;10.7;100.0;100460;;;;
2023/01/11 04:29:00;;;;;;;0.8;0.8;;;;;;;10.7;100.0;100460;;;;
2023/01/11 04:30:00;;;;;;;0.8;0.8;;;;;;;10.7;100.0;100460;;;;
2023/01/11 04:31:00;;;;;;;0.8;0.8;;;;;;;10.7;100.0;100460;;;;
2023/01/11 04:32:00;;;;;;;0.8;0.8;;;;;;;10.7;100.0;100460;;;;
2023/01/11 04:33:00;;;;;;;0.8;0.8;;;;;;;10.7;100.0;100450;;;;
2023/01/11 04:34:00;;;;;;;0.8;0.8;;;;;;;10.7;100.0;100450;;;;
2023/01/11 04:35:00;;;;;;;0.8;0.8;;;;;;;10.7;100.0;100450;;;;
2023/01/11 04:36:09;;;;;;;0.8;0.8;;;;;;;10.7;100.0;100450;;;;
2023/01/11 04:37:00;;;;;;;0.8;0.8;;;;;;;10.7;100.0;100450;;;;
2023/01/11 04:38:00;;;;;;;0.8;0.8;;;;;;;10.7;100.0;100450;;;;
2023/01/11 04:39:00;;;;;;;0.8;0.8;;;;;;;10.6;100.0;100450;;;;
2023/01/11 04:40:00;;;;;;;0.8;0.8;;;;;;;10.6;100.0;100450;;;;
2023/01/11 04:43:01;;;;;;;0.8;0.8;;;;;;;10.7;100.0;100450;;;;
2023/01/11 04:44:00;;;;;;;0.8;0.8;;;;;;;10.7;100.0;100450;;;;
2023/01/11 04:45:04;;;;;;;0.8;0.8;;;;;;;10.7;100.0;100450;;;;
2023/01/11 04:46:00;;;;;;;0.8;0.8;;;;;;;10.7;100.0;100450;;;;
2023/01/11 04:47:00;;;;;;;0.8;0.8;;;;;;;10.7;100.0;100450;;;;
2023/01/11 04:48:00;;;;;;;0.8;0.8;;;;;;;10.7;100.0;100450;;;;
2023/01/11 04:49:00;;;;;;;0.8;0.8;;;;;;;10.8;100.0;100460;;;;
2023/01/11 04:50:00;;;;;;;0.8;0.8;;;;;;;10.8;100.0;100460;;;;
2023/01/11 04:51:00;;;;;;;0.8;0.8;;;;;;;10.8;100.0;100460;;;;
2023/01/11 04:52:00;;;;;;;0.8;0.8;;;;;;;10.8;100.0;100460;;;;
2023/01/11 04:53:00;;;;;;;0.8;0.8;;;;;;;10.7;100.0;100460;;;;
2023/01/11 04:54:00;;;;;;;0.8;0.8;;;;;;;10.7;100.0;100460;;;;
2023/01/11 04:55:00;;;;;;;0.8;0.8;;;;;;;10.7;100.0;100470;;;;
2023/01/11 04:56:01;;;;;;;0.8;0.8;;;;;;;10.7;100.0;100470;;;;
2023/01/11 04:57:00;;;;;;;0.8;0.8;;;;;;;10.7;100.0;100470;;;;
2023/01/11 04:58:00;;;;;;;0.8;0.8;;;;;;;10.7;100.0;100470;;;;
2023/01/11 04:59:00;;;;;;;0.8;0.8;;;;;;;10.6;100.0;100470;;;;
2023/01/11 05:00:00;;;;;;;0.8;0.8;;;;;;;10.6;100.0;100470;;;;
2023/01/11 05:01:06;;;;;;;0.8;0.8;;;;;;;10.8;100.0;100460;;;;
2023/01/11 05:02:00;;;;;;;0.8;0.8;;;;;;;10.8;100.0;100460;;;;
2023/01/11 05:03:00;;;;;;;0.8;0.8;;;;;;;10.8;100.0;100470;;;;
2023/01/11 05:04:00;;;;;;;0.8;0.8;;;;;;;10.8;100.0;100470;;;;
2023/01/11 05:05:00;;;;;;;0.8;0.8;;;;;;;10.7;100.0;100470;;;;
2023/01/11 05:06:00;;;;;;;0.8;0.8;;;;;;;10.7;100.0;100470;;;;
2023/01/11 05:07:00;;;;;;;0.8;0.8;;;;;;;10.7;100.0;100480;;;;
2023/01/11 05:08:00;;;;;;;0.6;0.6;;;;;;;10.7;100.0;100480;;;;
2023/01/11 05:09:00;;;;;;;0.6;0.6;;;;;;;10.8;100.0;100480;;;;
2023/01/11 05:10:01;;;;;;;0.6;0.6;;;;;;;10.8;100.0;100480;;;;
2023/01/11 05:11:01;;;;;;;0.6;0.6;;;;;;;10.8;100.0;100470;;;;
2023/01/11 05:12:00;;;;;;;0.6;0.6;;;;;;;10.8;100.0;100470;;;;
2023/01/11 05:13:00;;;;;;;0.6;0.6;;;;;;;10.7;100.0;100480;;;;
2023/01/11 05:14:00;;;;;;;0.6;0.6;;;;;;;10.7;100.0;100480;;;;
2023/01/11 05:15:00;;;;;;;0.6;0.6;;;;;;;10.7;100.0;100480;;;;
2023/01/11 05:16:00;;;;;;;0.6;0.6;;;;;;;10.7;100.0;100480;;;;
2023/01/11 05:17:00;;;;;;;0.6;0.6;;;;;;;10.7;100.0;100480;;;;
2023/01/11 05:18:00;;;;;;;0.6;0.6;;;;;;;10.7;100.0;100480;;;;
2023/01/11 05:19:00;;;;;;;0.6;0.6;;;;;;;10.7;100.0;100480;;;;
2023/01/11 05:20:00;;;;;;;0.6;0.6;;;;;;;10.7;100.0;100480;;;;
2023/01/11 05:21:00;;;;;;;0.6;0.6;;;;;;;10.8;100.0;100480;;;;
2023/01/11 05:22:00;;;;;;;0.6;0.6;;;;;;;10.8;100.0;100480;;;;
2023/01/11 05:23:00;;;;;;;0.6;0.6;;;;;;;10.8;100.0;100480;;;;
2023/01/11 05:24:01;;;;;;;0.6;0.6;;;;;;;10.8;100.0;100480;;;;
2023/01/11 05:25:00;;;;;;;0.6;0.6;;;;;;;10.8;100.0;100480;;;;
2023/01/11 05:26:02;;;;;;;0.6;0.6;;;;;;;10.8;100.0;100480;;;;
2023/01/11 05:27:00;;;;;;;0.6;0.6;;;;;;;10.8;100.0;100480;;;;
2023/01/11 05:28:00;;;;;;;0.7;0.7;;;;;;;10.8;100.0;100480;;;;
2023/01/11 05:29:02;;;;;;;0.7;0.7;;;;;;;10.9;100.0;100480;;;;
2023/01/11 05:30:00;;;;;;;0.7;0.7;;;;;;;10.9;100.0;100480;;;;
2023/01/11 05:31:01;;;;;;;0.7;0.7;;;;;;;10.8;100.0;100490;;;;
2023/01/11 05:32:00;;;;;;;0.7;0.7;;;;;;;10.8;100.0;100490;;;;
2023/01/11 05:33:01;;;;;;;0.7;0.7;;;;;;;10.7;100.0;100500;;;;
2023/01/11 05:34:00;;;;;;;0.7;0.7;;;;;;;10.7;100.0;100500;;;;
2023/01/11 05:35:00;;;;;;;0.7;0.7;;;;;;;10.6;100.0;100500;;;;
2023/01/11 05:36:02;;;;;;;0.7;0.7;;;;;;;10.6;100.0;100500;;;;
2023/01/11 05:37:00;;;;;;;0.7;0.7;;;;;;;10.7;100.0;100500;;;;
2023/01/11 05:38:00;;;;;;;0.7;0.7;;;;;;;10.7;100.0;100500;;;;
2023/01/11 05:39:00;;;;;;;0.7;0.7;;;;;;;10.7;100.0;100500;;;;
2023/01/11 05:40:00;;;;;;;0.7;0.7;;;;;;;10.7;100.0;100500;;;;
2023/01/11 05:41:02;;;;;;;0.7;0.7;;;;;;;10.7;100.0;100500;;;;
2023/01/11 05:42:00;;;;;;;0.7;0.7;;;;;;;10.7;100.0;100500;;;;
2023/01/11 05:43:00;;;;;;;0.7;0.7;;;;;;;10.7;100.0;100510;;;;
2023/01/11 05:46:00;;;;;;;0.7;0.7;;;;;;;10.8;100.0;100500;;;;
2023/01/11 05:47:00;;;;;;;0.7;0.7;;;;;;;10.7;100.0;100500;;;;
2023/01/11 05:48:00;;;;;;;0.7;0.7;;;;;;;10.7;100.0;100500;;;;
2023/01/11 05:49:01;;;;;;;0.7;0.7;;;;;;;10.7;100.0;100500;;;;
2023/01/11 05:50:00;;;;;;;0.7;0.7;;;;;;;10.7;100.0;100500;;;;
2023/01/11 05:51:01;;;;;;;0.7;0.7;;;;;;;10.7;100.0;100500;;;;
2023/01/11 05:52:00;;;;;;;0.7;0.7;;;;;;;10.7;100.0;100500;;;;
2023/01/11 05:53:00;;;;;;;0.7;0.7;;;;;;;10.8;100.0;100490;;;;
2023/01/11 05:54:01;;;;;;;0.7;0.7;;;;;;;10.8;100.0;100490;;;;
2023/01/11 05:55:00;;;;;;;0.7;0.7;;;;;;;10.8;100.0;100500;;;;
2023/01/11 05:56:00;;;;;;;0.7;0.7;;;;;;;10.8;100.0;100500;;;;
2023/01/11 05:57:00;;;;;;;0.7;0.7;;;;;;;10.8;100.0;100500;;;;
2023/01/11 05:58:00;;;;;;;0.7;0.7;;;;;;;10.8;100.0;100500;;;;
2023/01/11 05:59:02;;;;;;;0.7;0.7;;;;;;;10.8;100.0;100500;;;;
2023/01/11 06:00:00;;;;;;;0.7;0.7;;;;;;;10.8;100.0;100500;;;;
2023/01/11 06:01:00;;;;;;;0.7;0.7;;;;;;;10.8;100.0;100500;;;;
2023/01/11 06:02:00;;;;;;;0.7;0.7;;;;;;;10.8;100.0;100500;;;;
2023/01/11 06:03:01;;;;;;;0.7;0.7;;;;;;;10.7;100.0;100500;;;;
2023/01/11 06:04:00;;;;;;;0.7;0.7;;;;;;;10.7;100.0;100500;;;;
2023/01/11 06:05:00;;;;;;;0.7;0.7;;;;;;;10.7;100.0;100500;;;;
2023/01/11 06:06:00;;;;;;;0.7;0.7;;;;;;;10.7;100.0;100500;;;;
2023/01/11 06:07:00;;;;;;;0.7;0.7;;;;;;;10.8;100.0;100500;;;;
2023/01/11 06:08:00;;;;;;;0.7;0.7;;;;;;;10.8;100.0;100500;;;;
2023/01/11 06:09:00;;;;;;;0.7;0.7;;;;;;;10.7;100.0;100500;;;;
2023/01/11 06:10:00;;;;;;;0.7;0.7;;;;;;;10.7;100.0;100500;;;;
2023/01/11 06:11:00;;;;;;;0.7;0.7;;;;;;;10.5;100.0;100500;;;;
2023/01/11 06:12:00;;;;;;;0.7;0.7;;;;;;;10.5;100.0;100500;;;;
2023/01/11 06:14:00;;;;;;;0.7;0.7;;;;;;;10.6;100.0;100510;;;;
2023/01/11 06:15:00;;;;;;;0.7;0.7;;;;;;;10.4;100.0;100510;;;;
2023/01/11 06:16:02;;;;;;;0.7;0.7;;;;;;;10.4;100.0;100510;;;;
2023/01/11 06:17:01;;;;;;;0.7;0.7;;;;;;;10.2;100.0;100520;;;;
2023/01/11 06:18:00;;;;;;;0.7;0.7;;;;;;;10.2;100.0;100520;;;;
2023/01/11 06:19:00;;;;;;;0.7;0.7;;;;;;;10.1;100.0;100520;;;;
2023/01/11 06:20:00;;;;;;;0.7;0.7;;;;;;;10.1;100.0;100520;;;;
2023/01/11 06:21:01;;;;;;;0.7;0.7;;;;;;;10.0;100.0;100520;;;;
2023/01/11 06:22:00;;;;;;;0.7;0.7;;;;;;;10.0;100.0;100520;;;;
2023/01/11 06:24:00;;;;;;;0.7;0.7;;;;;;;10.0;100.0;100520;;;;
2023/01/11 06:25:00;;;;;;;0.7;0.7;;;;;;;10.1;100.0;100520;;;;
2023/01/11 06:26:02;;;;;;;0.7;0.7;;;;;;;10.1;100.0;100520;;;;
2023/01/11 06:27:00;;;;;;;0.7;0.7;;;;;;;9.9;100.0;100520;;;;
2023/01/11 06:28:00;;;;;;;0.7;0.7;;;;;;;9.9;100.0;100520;;;;
2023/01/11 06:29:00;;;;;;;0.7;0.7;;;;;;;9.9;100.0;100530;;;;
2023/01/11 06:30:00;;;;;;;0.7;0.7;;;;;;;9.9;100.0;100530;;;;
2023/01/11 06:31:00;;;;;;;0.7;0.7;;;;;;;9.9;100.0;100530;;;;
2023/01/11 06:32:00;;;;;;;0.7;0.7;;;;;;;9.9;100.0;100530;;;;
2023/01/11 06:33:07;;;;;;;0.7;0.7;;;;;;;9.9;100.0;100540;;;;
2023/01/11 06:34:00;;;;;;;0.7;0.7;;;;;;;9.9;100.0;100540;;;;
2023/01/11 06:35:00;;;;;;;0.7;0.7;;;;;;;9.9;100.0;100550;;;;
2023/01/11 06:36:03;;;;;;;0.7;0.7;;;;;;;9.9;100.0;100550;;;;
2023/01/11 06:37:00;;;;;;;0.7;0.7;;;;;;;9.8;100.0;100550;;;;
2023/01/11 06:38:00;;;;;;;0.7;0.7;;;;;;;9.8;100.0;100550;;;;
2023/01/11 06:39:00;;;;;;;0.7;0.7;;;;;;;9.7;100.0;100550;;;;
2023/01/11 06:40:00;;;;;;;0.7;0.7;;;;;;;9.7;100.0;100550;;;;
2023/01/11 06:41:01;;;;;;;0.7;0.7;;;;;;;9.8;100.0;100550;;;;
2023/01/11 06:42:00;;;;;;;0.7;0.7;;;;;;;9.8;100.0;100550;;;;
2023/01/11 06:43:01;;;;;;;0.7;0.7;;;;;;;9.7;100.0;100560;;;;